Portland, North Dakota
Current Conditions -  °F | °C
As of 12:53 PM on Friday 24 Oct 2014 (Local Time) from KGFK Reporting Station
Scattered Clouds Scattered Clouds  
Wind Chill: 73°   Ceiling: Unl
Heat Index: 73°   Visibility: 10mi
Dew Point: 42°   Wind: 15mph
Humidity: 33%   Direction: 270°W
Pressure: 29.74"   Gusts: 23mph
Location:  47.5°N, 97.37°W
Report Text: KGFK 241753Z 27013G20KT 10SM FEW130 SCT250 23/06 A2974 RMK AO2 SLP073 T02280056 10228 20028 58007
Loading
Personal Weather Stations






























Interactive Weather Map New forecast layout! Learn more

10-Day Weather Forecast

Advertisements
Track Severe Weather on mobile